Terminal Aerodrome Forecast
Issued by NWS

Home | Current Version | Previous Version | Text Only | Print | Product List | Glossary On
Versions: 1 2 3 4 5 6 7 8 9 10 11 12 13
000
FTUS42 TJSJ 301729
TAFJPS
TAF
TJPS 301729Z 3018/3118 16010G15KT P6SM SCT030 SCT060
     FM302330 05005KT P6SM FEW025
     FM311430 14010G15KT P6SM FEW030
      AMD NOT SKED TIL 310300=

USA.gov is the U.S. government's official web portal to all federal, state and local government web resources and services.